sensor_id;sensor_type;location;lat;lon;timestamp;P1;durP1;ratioP1;P2;durP2;ratioP2
37483;SDS011;23337;52.212;9.926;2023-12-04T00:00:03;18.27;;;11.97;;
37483;SDS011;23337;52.212;9.926;2023-12-04T00:02:29;18.40;;;11.80;;
37483;SDS011;23337;52.212;9.926;2023-12-04T00:04:55;16.50;;;11.47;;
37483;SDS011;23337;52.212;9.926;2023-12-04T00:07:21;18.30;;;10.83;;
37483;SDS011;23337;52.212;9.926;2023-12-04T00:09:47;19.03;;;11.77;;
37483;SDS011;23337;52.212;9.926;2023-12-04T00:12:13;18.20;;;11.50;;
37483;SDS011;23337;52.212;9.926;2023-12-04T00:14:39;19.53;;;11.67;;
37483;SDS011;23337;52.212;9.926;2023-12-04T00:17:05;16.90;;;10.63;;
37483;SDS011;23337;52.212;9.926;2023-12-04T00:19:31;16.90;;;10.90;;
37483;SDS011;23337;52.212;9.926;2023-12-04T00:21:57;16.40;;;11.17;;
37483;SDS011;23337;52.212;9.926;2023-12-04T00:24:23;14.97;;;9.53;;
37483;SDS011;23337;52.212;9.926;2023-12-04T00:26:49;17.03;;;10.20;;
37483;SDS011;23337;52.212;9.926;2023-12-04T00:29:15;15.30;;;9.53;;
37483;SDS011;23337;52.212;9.926;2023-12-04T00:31:41;17.13;;;9.93;;
37483;SDS011;23337;52.212;9.926;2023-12-04T00:34:07;16.70;;;11.03;;
37483;SDS011;23337;52.212;9.926;2023-12-04T00:36:33;16.67;;;10.50;;
37483;SDS011;23337;52.212;9.926;2023-12-04T00:38:59;15.10;;;10.50;;
37483;SDS011;23337;52.212;9.926;2023-12-04T00:41:24;15.17;;;10.53;;
37483;SDS011;23337;52.212;9.926;2023-12-04T00:43:50;15.17;;;10.00;;
37483;SDS011;23337;52.212;9.926;2023-12-04T00:46:16;15.37;;;10.93;;
37483;SDS011;23337;52.212;9.926;2023-12-04T00:48:42;17.67;;;10.70;;
37483;SDS011;23337;52.212;9.926;2023-12-04T00:51:08;15.63;;;9.63;;
37483;SDS011;23337;52.212;9.926;2023-12-04T00:53:34;16.53;;;10.03;;
37483;SDS011;23337;52.212;9.926;2023-12-04T00:56:00;17.13;;;9.93;;
37483;SDS011;23337;52.212;9.926;2023-12-04T00:58:26;17.20;;;10.77;;
37483;SDS011;23337;52.212;9.926;2023-12-04T01:00:52;18.70;;;11.83;;
37483;SDS011;23337;52.212;9.926;2023-12-04T01:03:18;17.87;;;10.83;;
37483;SDS011;23337;52.212;9.926;2023-12-04T01:05:44;14.67;;;9.63;;
37483;SDS011;23337;52.212;9.926;2023-12-04T01:08:10;18.83;;;11.43;;
37483;SDS011;23337;52.212;9.926;2023-12-04T01:10:36;15.27;;;9.67;;
37483;SDS011;23337;52.212;9.926;2023-12-04T01:13:02;17.63;;;11.93;;
37483;SDS011;23337;52.212;9.926;2023-12-04T01:15:28;17.27;;;10.57;;
37483;SDS011;23337;52.212;9.926;2023-12-04T01:17:54;19.03;;;11.10;;
37483;SDS011;23337;52.212;9.926;2023-12-04T01:20:20;16.67;;;10.90;;
37483;SDS011;23337;52.212;9.926;2023-12-04T01:22:46;18.57;;;10.37;;
37483;SDS011;23337;52.212;9.926;2023-12-04T01:25:12;18.87;;;10.37;;
37483;SDS011;23337;52.212;9.926;2023-12-04T01:27:38;15.03;;;10.03;;
37483;SDS011;23337;52.212;9.926;2023-12-04T01:30:05;15.77;;;10.27;;
37483;SDS011;23337;52.212;9.926;2023-12-04T01:32:33;16.27;;;10.20;;
37483;SDS011;23337;52.212;9.926;2023-12-04T01:34:59;17.80;;;10.80;;
37483;SDS011;23337;52.212;9.926;2023-12-04T01:37:25;15.57;;;10.73;;
37483;SDS011;23337;52.212;9.926;2023-12-04T01:39:51;14.67;;;10.40;;
37483;SDS011;23337;52.212;9.926;2023-12-04T01:42:17;17.03;;;10.90;;
37483;SDS011;23337;52.212;9.926;2023-12-04T01:44:43;19.63;;;12.13;;
37483;SDS011;23337;52.212;9.926;2023-12-04T01:47:09;18.13;;;11.83;;
37483;SDS011;23337;52.212;9.926;2023-12-04T01:49:35;19.37;;;11.53;;
37483;SDS011;23337;52.212;9.926;2023-12-04T01:52:02;17.27;;;11.60;;
37483;SDS011;23337;52.212;9.926;2023-12-04T01:54:28;14.73;;;10.00;;
37483;SDS011;23337;52.212;9.926;2023-12-04T01:56:54;16.87;;;10.97;;
37483;SDS011;23337;52.212;9.926;2023-12-04T01:59:20;17.03;;;10.40;;
37483;SDS011;23337;52.212;9.926;2023-12-04T02:01:47;16.43;;;9.83;;
37483;SDS011;23337;52.212;9.926;2023-12-04T02:04:13;16.33;;;10.10;;
37483;SDS011;23337;52.212;9.926;2023-12-04T02:06:40;16.83;;;9.83;;
37483;SDS011;23337;52.212;9.926;2023-12-04T02:09:06;14.67;;;9.97;;
37483;SDS011;23337;52.212;9.926;2023-12-04T02:11:34;16.63;;;10.37;;
37483;SDS011;23337;52.212;9.926;2023-12-04T02:14:00;19.00;;;11.13;;
37483;SDS011;23337;52.212;9.926;2023-12-04T02:16:26;15.97;;;10.37;;
37483;SDS011;23337;52.212;9.926;2023-12-04T02:18:53;16.77;;;10.10;;
37483;SDS011;23337;52.212;9.926;2023-12-04T02:21:19;14.90;;;9.70;;
37483;SDS011;23337;52.212;9.926;2023-12-04T02:23:49;15.07;;;10.27;;
37483;SDS011;23337;52.212;9.926;2023-12-04T02:26:15;17.57;;;10.90;;
37483;SDS011;23337;52.212;9.926;2023-12-04T02:28:42;16.60;;;10.40;;
37483;SDS011;23337;52.212;9.926;2023-12-04T02:31:10;16.93;;;10.80;;
37483;SDS011;23337;52.212;9.926;2023-12-04T02:33:36;15.07;;;10.43;;
37483;SDS011;23337;52.212;9.926;2023-12-04T02:36:03;17.07;;;10.30;;
37483;SDS011;23337;52.212;9.926;2023-12-04T02:38:31;15.23;;;9.93;;
37483;SDS011;23337;52.212;9.926;2023-12-04T02:40:57;16.40;;;10.93;;
37483;SDS011;23337;52.212;9.926;2023-12-04T02:43:23;15.97;;;10.47;;
37483;SDS011;23337;52.212;9.926;2023-12-04T02:45:49;17.60;;;11.17;;
37483;SDS011;23337;52.212;9.926;2023-12-04T02:48:15;16.93;;;11.10;;
37483;SDS011;23337;52.212;9.926;2023-12-04T02:50:41;16.53;;;10.20;;
37483;SDS011;23337;52.212;9.926;2023-12-04T02:53:07;14.80;;;10.33;;
37483;SDS011;23337;52.212;9.926;2023-12-04T02:55:33;16.60;;;11.77;;
37483;SDS011;23337;52.212;9.926;2023-12-04T02:57:59;16.77;;;9.57;;
37483;SDS011;23337;52.212;9.926;2023-12-04T03:00:24;13.57;;;9.20;;
37483;SDS011;23337;52.212;9.926;2023-12-04T03:02:51;14.97;;;9.67;;
37483;SDS011;23337;52.212;9.926;2023-12-04T03:05:17;13.60;;;9.37;;
37483;SDS011;23337;52.212;9.926;2023-12-04T03:07:42;13.57;;;9.03;;
37483;SDS011;23337;52.212;9.926;2023-12-04T03:10:08;13.63;;;9.53;;
37483;SDS011;23337;52.212;9.926;2023-12-04T03:12:34;13.43;;;8.30;;
37483;SDS011;23337;52.212;9.926;2023-12-04T03:15:00;12.93;;;8.83;;
37483;SDS011;23337;52.212;9.926;2023-12-04T03:17:26;13.30;;;8.87;;
37483;SDS011;23337;52.212;9.926;2023-12-04T03:19:52;13.60;;;9.03;;
37483;SDS011;23337;52.212;9.926;2023-12-04T03:22:18;13.73;;;9.77;;
37483;SDS011;23337;52.212;9.926;2023-12-04T03:24:44;11.10;;;8.03;;
37483;SDS011;23337;52.212;9.926;2023-12-04T03:27:11;14.10;;;9.10;;
37483;SDS011;23337;52.212;9.926;2023-12-04T03:29:37;12.73;;;8.57;;
37483;SDS011;23337;52.212;9.926;2023-12-04T03:32:03;12.73;;;8.37;;
37483;SDS011;23337;52.212;9.926;2023-12-04T03:34:29;10.13;;;7.40;;
37483;SDS011;23337;52.212;9.926;2023-12-04T03:36:55;9.43;;;7.23;;
37483;SDS011;23337;52.212;9.926;2023-12-04T03:39:21;11.57;;;7.77;;
37483;SDS011;23337;52.212;9.926;2023-12-04T03:41:47;13.03;;;8.47;;
37483;SDS011;23337;52.212;9.926;2023-12-04T03:44:13;11.37;;;7.77;;
37483;SDS011;23337;52.212;9.926;2023-12-04T03:46:39;10.80;;;7.37;;
37483;SDS011;23337;52.212;9.926;2023-12-04T03:49:05;12.40;;;8.53;;
37483;SDS011;23337;52.212;9.926;2023-12-04T03:51:31;13.60;;;9.07;;
37483;SDS011;23337;52.212;9.926;2023-12-04T03:53:57;10.40;;;7.03;;
37483;SDS011;23337;52.212;9.926;2023-12-04T03:56:23;11.10;;;7.53;;
37483;SDS011;23337;52.212;9.926;2023-12-04T03:58:49;10.63;;;7.97;;
37483;SDS011;23337;52.212;9.926;2023-12-04T04:01:15;11.67;;;7.97;;
37483;SDS011;23337;52.212;9.926;2023-12-04T04:03:40;10.53;;;7.23;;
37483;SDS011;23337;52.212;9.926;2023-12-04T04:06:07;14.73;;;9.03;;
37483;SDS011;23337;52.212;9.926;2023-12-04T04:08:33;10.40;;;7.30;;
37483;SDS011;23337;52.212;9.926;2023-12-04T04:10:59;10.43;;;6.73;;
37483;SDS011;23337;52.212;9.926;2023-12-04T04:13:25;10.67;;;7.23;;
37483;SDS011;23337;52.212;9.926;2023-12-04T04:15:51;10.53;;;7.57;;
37483;SDS011;23337;52.212;9.926;2023-12-04T04:18:17;10.67;;;7.43;;
37483;SDS011;23337;52.212;9.926;2023-12-04T04:20:43;11.50;;;7.70;;
37483;SDS011;23337;52.212;9.926;2023-12-04T04:23:09;11.37;;;7.87;;
37483;SDS011;23337;52.212;9.926;2023-12-04T04:25:35;11.33;;;7.87;;
37483;SDS011;23337;52.212;9.926;2023-12-04T04:28:01;11.00;;;7.57;;
37483;SDS011;23337;52.212;9.926;2023-12-04T04:30:27;10.23;;;7.17;;
37483;SDS011;23337;52.212;9.926;2023-12-04T04:32:53;11.90;;;7.60;;
37483;SDS011;23337;52.212;9.926;2023-12-04T04:35:19;12.63;;;7.97;;
37483;SDS011;23337;52.212;9.926;2023-12-04T04:37:44;10.13;;;7.40;;
37483;SDS011;23337;52.212;9.926;2023-12-04T04:40:10;13.63;;;8.93;;
37483;SDS011;23337;52.212;9.926;2023-12-04T04:42:36;10.43;;;7.80;;
37483;SDS011;23337;52.212;9.926;2023-12-04T04:45:02;10.83;;;7.77;;
37483;SDS011;23337;52.212;9.926;2023-12-04T04:47:28;11.40;;;8.00;;
37483;SDS011;23337;52.212;9.926;2023-12-04T04:49:54;9.73;;;7.63;;
37483;SDS011;23337;52.212;9.926;2023-12-04T04:52:20;13.03;;;8.50;;
37483;SDS011;23337;52.212;9.926;2023-12-04T04:54:46;13.67;;;8.27;;
37483;SDS011;23337;52.212;9.926;2023-12-04T04:57:12;10.60;;;7.40;;
37483;SDS011;23337;52.212;9.926;2023-12-04T04:59:38;12.13;;;7.87;;
37483;SDS011;23337;52.212;9.926;2023-12-04T05:02:04;13.97;;;9.00;;
37483;SDS011;23337;52.212;9.926;2023-12-04T05:04:30;13.40;;;8.40;;
37483;SDS011;23337;52.212;9.926;2023-12-04T05:06:56;12.33;;;8.13;;
37483;SDS011;23337;52.212;9.926;2023-12-04T05:09:22;11.47;;;7.87;;
37483;SDS011;23337;52.212;9.926;2023-12-04T05:11:48;10.33;;;7.50;;
37483;SDS011;23337;52.212;9.926;2023-12-04T05:14:14;11.90;;;7.60;;
37483;SDS011;23337;52.212;9.926;2023-12-04T05:16:40;11.63;;;8.53;;
37483;SDS011;23337;52.212;9.926;2023-12-04T05:19:06;11.77;;;7.93;;
37483;SDS011;23337;52.212;9.926;2023-12-04T05:21:32;9.93;;;7.23;;
37483;SDS011;23337;52.212;9.926;2023-12-04T05:23:58;12.17;;;8.57;;
37483;SDS011;23337;52.212;9.926;2023-12-04T05:26:23;11.10;;;7.37;;
37483;SDS011;23337;52.212;9.926;2023-12-04T05:28:49;12.27;;;8.73;;
37483;SDS011;23337;52.212;9.926;2023-12-04T05:31:15;12.13;;;7.83;;
37483;SDS011;23337;52.212;9.926;2023-12-04T05:33:41;13.03;;;8.87;;
37483;SDS011;23337;52.212;9.926;2023-12-04T05:36:09;13.63;;;8.77;;
37483;SDS011;23337;52.212;9.926;2023-12-04T05:38:35;13.13;;;9.10;;
37483;SDS011;23337;52.212;9.926;2023-12-04T05:41:01;12.57;;;8.27;;
37483;SDS011;23337;52.212;9.926;2023-12-04T05:43:28;14.10;;;9.50;;
37483;SDS011;23337;52.212;9.926;2023-12-04T05:45:53;12.57;;;9.10;;
37483;SDS011;23337;52.212;9.926;2023-12-04T05:48:19;12.73;;;8.33;;
37483;SDS011;23337;52.212;9.926;2023-12-04T05:50:45;16.50;;;9.37;;
37483;SDS011;23337;52.212;9.926;2023-12-04T05:53:11;15.03;;;8.47;;
37483;SDS011;23337;52.212;9.926;2023-12-04T05:55:37;12.07;;;8.97;;
37483;SDS011;23337;52.212;9.926;2023-12-04T05:58:03;11.90;;;8.57;;
37483;SDS011;23337;52.212;9.926;2023-12-04T06:00:29;11.57;;;8.90;;
37483;SDS011;23337;52.212;9.926;2023-12-04T06:02:55;12.97;;;9.00;;
37483;SDS011;23337;52.212;9.926;2023-12-04T06:05:21;11.53;;;8.23;;
37483;SDS011;23337;52.212;9.926;2023-12-04T06:07:48;15.50;;;8.70;;
37483;SDS011;23337;52.212;9.926;2023-12-04T06:10:14;13.20;;;8.53;;
37483;SDS011;23337;52.212;9.926;2023-12-04T06:12:40;11.70;;;8.40;;
37483;SDS011;23337;52.212;9.926;2023-12-04T06:15:06;12.30;;;7.93;;
37483;SDS011;23337;52.212;9.926;2023-12-04T06:17:32;11.83;;;8.20;;
37483;SDS011;23337;52.212;9.926;2023-12-04T06:19:58;10.47;;;7.90;;
37483;SDS011;23337;52.212;9.926;2023-12-04T06:22:24;11.63;;;8.10;;
37483;SDS011;23337;52.212;9.926;2023-12-04T06:24:50;12.30;;;8.37;;
37483;SDS011;23337;52.212;9.926;2023-12-04T06:27:17;12.17;;;8.13;;
37483;SDS011;23337;52.212;9.926;2023-12-04T06:29:45;12.50;;;8.23;;
37483;SDS011;23337;52.212;9.926;2023-12-04T06:32:11;11.87;;;9.10;;
37483;SDS011;23337;52.212;9.926;2023-12-04T06:34:37;11.50;;;7.70;;
37483;SDS011;23337;52.212;9.926;2023-12-04T06:37:04;11.97;;;8.90;;
37483;SDS011;23337;52.212;9.926;2023-12-04T06:39:33;13.13;;;9.03;;
37483;SDS011;23337;52.212;9.926;2023-12-04T06:41:59;12.20;;;8.67;;
37483;SDS011;23337;52.212;9.926;2023-12-04T06:44:25;12.30;;;8.50;;
37483;SDS011;23337;52.212;9.926;2023-12-04T06:46:51;12.53;;;8.40;;
37483;SDS011;23337;52.212;9.926;2023-12-04T06:49:18;11.47;;;8.47;;
37483;SDS011;23337;52.212;9.926;2023-12-04T06:51:44;12.37;;;9.17;;
37483;SDS011;23337;52.212;9.926;2023-12-04T06:54:10;12.77;;;8.40;;
37483;SDS011;23337;52.212;9.926;2023-12-04T06:56:38;11.33;;;8.23;;
37483;SDS011;23337;52.212;9.926;2023-12-04T06:59:04;13.70;;;9.37;;
37483;SDS011;23337;52.212;9.926;2023-12-04T07:01:30;13.17;;;8.17;;
37483;SDS011;23337;52.212;9.926;2023-12-04T07:03:56;14.33;;;10.17;;
37483;SDS011;23337;52.212;9.926;2023-12-04T07:06:22;15.07;;;9.77;;
37483;SDS011;23337;52.212;9.926;2023-12-04T07:08:49;12.20;;;8.60;;
37483;SDS011;23337;52.212;9.926;2023-12-04T07:11:15;13.53;;;8.80;;
37483;SDS011;23337;52.212;9.926;2023-12-04T07:13:41;13.63;;;9.27;;
37483;SDS011;23337;52.212;9.926;2023-12-04T07:16:07;13.60;;;9.10;;
37483;SDS011;23337;52.212;9.926;2023-12-04T07:18:33;13.07;;;9.33;;
37483;SDS011;23337;52.212;9.926;2023-12-04T07:21:00;12.90;;;8.80;;
37483;SDS011;23337;52.212;9.926;2023-12-04T07:23:26;15.17;;;10.50;;
37483;SDS011;23337;52.212;9.926;2023-12-04T07:25:51;11.93;;;8.07;;
37483;SDS011;23337;52.212;9.926;2023-12-04T07:28:18;13.77;;;9.10;;
37483;SDS011;23337;52.212;9.926;2023-12-04T07:30:44;15.20;;;9.63;;
37483;SDS011;23337;52.212;9.926;2023-12-04T07:33:11;14.03;;;9.40;;
37483;SDS011;23337;52.212;9.926;2023-12-04T07:35:37;15.27;;;9.40;;
37483;SDS011;23337;52.212;9.926;2023-12-04T07:38:03;11.90;;;9.10;;
37483;SDS011;23337;52.212;9.926;2023-12-04T07:40:29;15.60;;;9.23;;
37483;SDS011;23337;52.212;9.926;2023-12-04T07:42:55;13.73;;;9.57;;
37483;SDS011;23337;52.212;9.926;2023-12-04T07:45:21;13.07;;;9.33;;
37483;SDS011;23337;52.212;9.926;2023-12-04T07:47:48;11.67;;;8.27;;
37483;SDS011;23337;52.212;9.926;2023-12-04T07:50:15;13.77;;;8.67;;
37483;SDS011;23337;52.212;9.926;2023-12-04T07:52:42;12.03;;;8.20;;
37483;SDS011;23337;52.212;9.926;2023-12-04T07:55:08;12.70;;;9.30;;
37483;SDS011;23337;52.212;9.926;2023-12-04T07:57:34;13.93;;;8.73;;
37483;SDS011;23337;52.212;9.926;2023-12-04T08:00:00;11.83;;;8.57;;
37483;SDS011;23337;52.212;9.926;2023-12-04T08:02:26;13.20;;;8.83;;
37483;SDS011;23337;52.212;9.926;2023-12-04T08:04:52;11.60;;;8.43;;
37483;SDS011;23337;52.212;9.926;2023-12-04T08:07:18;12.63;;;8.87;;
37483;SDS011;23337;52.212;9.926;2023-12-04T08:09:44;13.67;;;9.53;;
37483;SDS011;23337;52.212;9.926;2023-12-04T08:12:10;11.53;;;8.63;;
37483;SDS011;23337;52.212;9.926;2023-12-04T08:14:36;15.30;;;9.30;;
37483;SDS011;23337;52.212;9.926;2023-12-04T08:17:02;12.53;;;9.03;;
37483;SDS011;23337;52.212;9.926;2023-12-04T08:19:28;12.53;;;8.70;;
37483;SDS011;23337;52.212;9.926;2023-12-04T08:21:54;14.10;;;9.03;;
37483;SDS011;23337;52.212;9.926;2023-12-04T08:24:20;12.37;;;8.97;;
37483;SDS011;23337;52.212;9.926;2023-12-04T08:26:46;12.00;;;8.67;;
37483;SDS011;23337;52.212;9.926;2023-12-04T08:29:12;16.77;;;9.47;;
37483;SDS011;23337;52.212;9.926;2023-12-04T08:31:38;13.77;;;9.60;;
37483;SDS011;23337;52.212;9.926;2023-12-04T08:34:04;13.17;;;9.87;;
37483;SDS011;23337;52.212;9.926;2023-12-04T08:36:30;12.23;;;8.73;;
37483;SDS011;23337;52.212;9.926;2023-12-04T08:38:56;13.63;;;11.10;;
37483;SDS011;23337;52.212;9.926;2023-12-04T08:41:22;12.63;;;9.27;;
37483;SDS011;23337;52.212;9.926;2023-12-04T08:43:48;11.20;;;8.00;;
37483;SDS011;23337;52.212;9.926;2023-12-04T08:46:14;13.37;;;9.17;;
37483;SDS011;23337;52.212;9.926;2023-12-04T08:48:42;12.63;;;9.33;;
37483;SDS011;23337;52.212;9.926;2023-12-04T08:51:14;11.73;;;8.97;;
37483;SDS011;23337;52.212;9.926;2023-12-04T08:53:41;12.10;;;9.00;;
37483;SDS011;23337;52.212;9.926;2023-12-04T08:56:07;12.57;;;8.50;;
37483;SDS011;23337;52.212;9.926;2023-12-04T08:58:33;13.07;;;9.00;;
37483;SDS011;23337;52.212;9.926;2023-12-04T09:00:59;10.70;;;8.03;;
37483;SDS011;23337;52.212;9.926;2023-12-04T09:03:25;11.83;;;9.20;;
37483;SDS011;23337;52.212;9.926;2023-12-04T09:05:51;12.73;;;8.80;;
37483;SDS011;23337;52.212;9.926;2023-12-04T09:08:17;10.40;;;7.47;;
37483;SDS011;23337;52.212;9.926;2023-12-04T09:10:44;10.00;;;7.80;;
37483;SDS011;23337;52.212;9.926;2023-12-04T09:13:10;11.10;;;7.60;;
37483;SDS011;23337;52.212;9.926;2023-12-04T09:15:36;10.90;;;8.10;;
37483;SDS011;23337;52.212;9.926;2023-12-04T09:18:02;13.00;;;8.40;;
37483;SDS011;23337;52.212;9.926;2023-12-04T09:20:28;10.20;;;7.40;;
37483;SDS011;23337;52.212;9.926;2023-12-04T09:22:54;10.80;;;8.03;;
37483;SDS011;23337;52.212;9.926;2023-12-04T09:25:20;10.60;;;8.17;;
37483;SDS011;23337;52.212;9.926;2023-12-04T09:27:46;11.43;;;7.90;;
37483;SDS011;23337;52.212;9.926;2023-12-04T09:30:12;9.03;;;7.50;;
37483;SDS011;23337;52.212;9.926;2023-12-04T09:32:38;12.13;;;8.03;;
37483;SDS011;23337;52.212;9.926;2023-12-04T09:35:06;10.07;;;7.40;;
37483;SDS011;23337;52.212;9.926;2023-12-04T09:37:32;11.77;;;8.30;;
37483;SDS011;23337;52.212;9.926;2023-12-04T09:39:58;9.83;;;7.10;;
37483;SDS011;23337;52.212;9.926;2023-12-04T09:42:24;10.70;;;7.43;;
37483;SDS011;23337;52.212;9.926;2023-12-04T09:44:50;11.20;;;8.20;;
37483;SDS011;23337;52.212;9.926;2023-12-04T09:47:18;9.83;;;7.27;;
37483;SDS011;23337;52.212;9.926;2023-12-04T09:49:44;8.33;;;6.67;;
37483;SDS011;23337;52.212;9.926;2023-12-04T09:52:10;10.32;;;8.98;;
37483;SDS011;23337;52.212;9.926;2023-12-04T09:54:36;9.10;;;6.97;;
37483;SDS011;23337;52.212;9.926;2023-12-04T09:57:03;9.10;;;7.13;;
37483;SDS011;23337;52.212;9.926;2023-12-04T09:59:30;8.27;;;6.37;;
37483;SDS011;23337;52.212;9.926;2023-12-04T10:01:56;9.60;;;6.63;;
37483;SDS011;23337;52.212;9.926;2023-12-04T10:04:23;9.90;;;7.07;;
37483;SDS011;23337;52.212;9.926;2023-12-04T10:06:50;8.50;;;6.60;;
37483;SDS011;23337;52.212;9.926;2023-12-04T10:09:17;10.37;;;7.33;;
37483;SDS011;23337;52.212;9.926;2023-12-04T10:11:44;8.87;;;6.27;;
37483;SDS011;23337;52.212;9.926;2023-12-04T10:14:17;10.53;;;7.17;;
37483;SDS011;23337;52.212;9.926;2023-12-04T10:16:43;9.50;;;6.67;;
37483;SDS011;23337;52.212;9.926;2023-12-04T10:19:19;9.33;;;7.00;;
37483;SDS011;23337;52.212;9.926;2023-12-04T10:21:47;9.03;;;6.63;;
37483;SDS011;23337;52.212;9.926;2023-12-04T10:24:30;9.37;;;7.13;;
37483;SDS011;23337;52.212;9.926;2023-12-04T10:26:56;9.13;;;6.53;;
37483;SDS011;23337;52.212;9.926;2023-12-04T10:29:23;7.60;;;5.80;;
37483;SDS011;23337;52.212;9.926;2023-12-04T10:31:49;7.50;;;6.50;;
37483;SDS011;23337;52.212;9.926;2023-12-04T10:34:17;9.93;;;6.73;;
37483;SDS011;23337;52.212;9.926;2023-12-04T10:36:44;9.50;;;7.30;;
37483;SDS011;23337;52.212;9.926;2023-12-04T10:39:10;8.23;;;6.33;;
37483;SDS011;23337;52.212;9.926;2023-12-04T10:41:38;8.27;;;6.70;;
37483;SDS011;23337;52.212;9.926;2023-12-04T10:44:04;9.65;;;7.10;;
37483;SDS011;23337;52.212;9.926;2023-12-04T10:46:31;7.67;;;6.60;;
37483;SDS011;23337;52.212;9.926;2023-12-04T10:48:58;9.40;;;6.83;;
37483;SDS011;23337;52.212;9.926;2023-12-04T10:51:24;9.00;;;6.17;;
37483;SDS011;23337;52.212;9.926;2023-12-04T10:53:52;9.17;;;6.20;;
37483;SDS011;23337;52.212;9.926;2023-12-04T10:56:35;8.07;;;7.20;;
37483;SDS011;23337;52.212;9.926;2023-12-04T10:59:07;7.47;;;6.33;;
37483;SDS011;23337;52.212;9.926;2023-12-04T11:01:37;8.70;;;6.43;;
37483;SDS011;23337;52.212;9.926;2023-12-04T11:04:03;9.30;;;6.47;;
37483;SDS011;23337;52.212;9.926;2023-12-04T11:06:33;8.60;;;6.30;;
37483;SDS011;23337;52.212;9.926;2023-12-04T11:09:00;8.53;;;6.23;;
37483;SDS011;23337;52.212;9.926;2023-12-04T11:11:28;7.33;;;6.17;;
37483;SDS011;23337;52.212;9.926;2023-12-04T11:13:56;9.37;;;6.07;;
37483;SDS011;23337;52.212;9.926;2023-12-04T11:19:12;8.17;;;5.87;;
37483;SDS011;23337;52.212;9.926;2023-12-04T11:21:41;8.80;;;6.10;;
37483;SDS011;23337;52.212;9.926;2023-12-04T11:24:08;8.57;;;6.00;;
37483;SDS011;23337;52.212;9.926;2023-12-04T11:26:35;7.93;;;6.50;;
37483;SDS011;23337;52.212;9.926;2023-12-04T11:29:01;7.40;;;6.00;;
37483;SDS011;23337;52.212;9.926;2023-12-04T11:31:27;9.37;;;6.13;;
37483;SDS011;23337;52.212;9.926;2023-12-04T11:33:53;8.60;;;6.13;;
37483;SDS011;23337;52.212;9.926;2023-12-04T11:36:27;11.37;;;6.47;;
37483;SDS011;23337;52.212;9.926;2023-12-04T11:38:53;7.27;;;6.00;;
37483;SDS011;23337;52.212;9.926;2023-12-04T11:41:19;8.43;;;5.53;;
37483;SDS011;23337;52.212;9.926;2023-12-04T11:43:46;7.83;;;6.37;;
37483;SDS011;23337;52.212;9.926;2023-12-04T11:46:12;6.67;;;5.60;;
37483;SDS011;23337;52.212;9.926;2023-12-04T11:48:39;7.20;;;5.27;;
37483;SDS011;23337;52.212;9.926;2023-12-04T11:51:05;7.07;;;5.60;;
37483;SDS011;23337;52.212;9.926;2023-12-04T11:53:37;7.53;;;5.40;;
37483;SDS011;23337;52.212;9.926;2023-12-04T11:56:10;8.17;;;4.83;;
37483;SDS011;23337;52.212;9.926;2023-12-04T11:58:43;8.30;;;5.80;;
37483;SDS011;23337;52.212;9.926;2023-12-04T12:01:09;7.27;;;5.50;;
37483;SDS011;23337;52.212;9.926;2023-12-04T12:03:36;8.73;;;5.60;;
37483;SDS011;23337;52.212;9.926;2023-12-04T12:06:03;7.53;;;5.40;;
37483;SDS011;23337;52.212;9.926;2023-12-04T12:08:29;7.63;;;5.53;;
37483;SDS011;23337;52.212;9.926;2023-12-04T12:10:55;11.27;;;6.00;;
37483;SDS011;23337;52.212;9.926;2023-12-04T12:13:22;8.60;;;5.70;;
37483;SDS011;23337;52.212;9.926;2023-12-04T12:15:51;7.57;;;5.27;;
37483;SDS011;23337;52.212;9.926;2023-12-04T12:18:18;8.37;;;5.83;;
37483;SDS011;23337;52.212;9.926;2023-12-04T12:20:44;7.43;;;5.67;;
37483;SDS011;23337;52.212;9.926;2023-12-04T12:23:10;8.30;;;5.20;;
37483;SDS011;23337;52.212;9.926;2023-12-04T12:25:36;7.23;;;5.20;;
37483;SDS011;23337;52.212;9.926;2023-12-04T12:28:02;7.40;;;5.57;;
37483;SDS011;23337;52.212;9.926;2023-12-04T12:30:28;15.87;;;6.43;;
37483;SDS011;23337;52.212;9.926;2023-12-04T12:32:54;7.97;;;5.33;;
37483;SDS011;23337;52.212;9.926;2023-12-04T12:35:20;7.57;;;5.33;;
37483;SDS011;23337;52.212;9.926;2023-12-04T12:37:48;6.00;;;4.50;;
37483;SDS011;23337;52.212;9.926;2023-12-04T12:40:14;6.87;;;5.00;;
37483;SDS011;23337;52.212;9.926;2023-12-04T12:42:40;6.63;;;5.50;;
37483;SDS011;23337;52.212;9.926;2023-12-04T12:45:07;6.20;;;4.93;;
37483;SDS011;23337;52.212;9.926;2023-12-04T12:47:36;5.90;;;4.60;;
37483;SDS011;23337;52.212;9.926;2023-12-04T12:50:02;6.37;;;5.13;;
37483;SDS011;23337;52.212;9.926;2023-12-04T12:52:28;6.63;;;5.50;;
37483;SDS011;23337;52.212;9.926;2023-12-04T12:54:54;6.13;;;4.97;;
37483;SDS011;23337;52.212;9.926;2023-12-04T12:57:21;5.90;;;4.67;;
37483;SDS011;23337;52.212;9.926;2023-12-04T12:59:47;7.23;;;4.40;;
37483;SDS011;23337;52.212;9.926;2023-12-04T13:02:13;7.57;;;5.40;;
37483;SDS011;23337;52.212;9.926;2023-12-04T13:04:43;7.30;;;4.60;;
37483;SDS011;23337;52.212;9.926;2023-12-04T13:07:09;8.30;;;5.23;;
37483;SDS011;23337;52.212;9.926;2023-12-04T13:09:35;7.70;;;5.37;;
37483;SDS011;23337;52.212;9.926;2023-12-04T13:12:05;6.90;;;5.30;;
37483;SDS011;23337;52.212;9.926;2023-12-04T13:14:31;7.03;;;5.00;;
37483;SDS011;23337;52.212;9.926;2023-12-04T13:16:57;6.00;;;4.27;;
37483;SDS011;23337;52.212;9.926;2023-12-04T13:19:23;4.50;;;3.87;;
37483;SDS011;23337;52.212;9.926;2023-12-04T13:21:49;5.93;;;4.23;;
37483;SDS011;23337;52.212;9.926;2023-12-04T13:24:16;14.00;;;5.40;;
37483;SDS011;23337;52.212;9.926;2023-12-04T13:26:42;6.50;;;4.63;;
37483;SDS011;23337;52.212;9.926;2023-12-04T13:29:08;5.53;;;4.03;;
37483;SDS011;23337;52.212;9.926;2023-12-04T13:31:34;6.50;;;4.47;;
37483;SDS011;23337;52.212;9.926;2023-12-04T13:34:01;5.27;;;4.17;;
37483;SDS011;23337;52.212;9.926;2023-12-04T13:36:28;4.70;;;4.23;;
37483;SDS011;23337;52.212;9.926;2023-12-04T13:38:54;6.73;;;4.30;;
37483;SDS011;23337;52.212;9.926;2023-12-04T13:41:20;5.27;;;4.27;;
37483;SDS011;23337;52.212;9.926;2023-12-04T13:44:06;6.50;;;4.20;;
37483;SDS011;23337;52.212;9.926;2023-12-04T13:46:32;5.17;;;3.80;;
37483;SDS011;23337;52.212;9.926;2023-12-04T13:48:58;5.70;;;4.27;;
37483;SDS011;23337;52.212;9.926;2023-12-04T13:51:25;4.37;;;3.57;;
37483;SDS011;23337;52.212;9.926;2023-12-04T13:53:51;4.60;;;3.67;;
37483;SDS011;23337;52.212;9.926;2023-12-04T13:56:22;4.43;;;3.60;;
37483;SDS011;23337;52.212;9.926;2023-12-04T13:58:48;4.00;;;3.17;;
37483;SDS011;23337;52.212;9.926;2023-12-04T14:01:22;4.80;;;3.67;;
37483;SDS011;23337;52.212;9.926;2023-12-04T14:03:49;5.20;;;3.60;;
37483;SDS011;23337;52.212;9.926;2023-12-04T14:06:15;4.53;;;3.30;;
37483;SDS011;23337;52.212;9.926;2023-12-04T14:08:41;6.10;;;3.60;;
37483;SDS011;23337;52.212;9.926;2023-12-04T14:11:07;4.03;;;3.40;;
37483;SDS011;23337;52.212;9.926;2023-12-04T14:13:36;3.93;;;3.40;;
37483;SDS011;23337;52.212;9.926;2023-12-04T14:16:04;5.00;;;2.93;;
37483;SDS011;23337;52.212;9.926;2023-12-04T14:18:30;4.13;;;2.87;;
37483;SDS011;23337;52.212;9.926;2023-12-04T14:20:56;4.43;;;3.77;;
37483;SDS011;23337;52.212;9.926;2023-12-04T14:23:22;7.50;;;3.87;;
37483;SDS011;23337;52.212;9.926;2023-12-04T14:25:48;4.07;;;3.33;;
37483;SDS011;23337;52.212;9.926;2023-12-04T14:28:14;4.83;;;3.27;;
37483;SDS011;23337;52.212;9.926;2023-12-04T14:30:40;5.93;;;3.63;;
37483;SDS011;23337;52.212;9.926;2023-12-04T14:33:06;4.57;;;3.07;;